sensor_id;sensor_type;location;lat;lon;timestamp;pressure;altitude;pressure_sealevel;temperature;humidity
63347;BME280;49472;49.880;8.650;2023-04-27T00:01:23;10707.16;;;-142.94;nan
63347;BME280;49472;49.880;8.650;2023-04-27T00:03:49;13165.31;;;-142.94;nan
63347;BME280;49472;49.880;8.650;2023-04-27T00:06:15;11198.66;;;-142.94;nan
63347;BME280;49472;49.880;8.650;2023-04-27T00:08:40;18333.41;;;-142.94;nan
63347;BME280;49472;49.880;8.650;2023-04-27T00:11:06;15871.41;;;-142.94;nan
63347;BME280;49472;49.880;8.650;2023-04-27T00:13:31;14887.13;;;-142.94;nan
63347;BME280;49472;49.880;8.650;2023-04-27T00:15:56;12181.84;;;-142.94;nan
63347;BME280;49472;49.880;8.650;2023-04-27T00:18:24;9724.41;;;-142.94;nan
63347;BME280;49472;49.880;8.650;2023-04-27T00:20:50;15871.41;;;-142.94;nan
63347;BME280;49472;49.880;8.650;2023-04-27T00:23:15;14887.13;;;-142.94;nan
63347;BME280;49472;49.880;8.650;2023-04-27T00:25:40;17594.63;;;-142.94;nan
63347;BME280;49472;49.880;8.650;2023-04-27T00:28:06;16363.66;;;-142.94;nan
63347;BME280;49472;49.880;8.650;2023-04-27T00:30:31;18333.41;;;-142.94;nan
63347;BME280;49472;49.880;8.650;2023-04-27T00:32:56;18333.41;;;-142.94;nan
63347;BME280;49472;49.880;8.650;2023-04-27T00:35:22;18087.13;;;-142.94;nan
63347;BME280;49472;49.880;8.650;2023-04-27T00:37:47;16609.81;;;-142.94;nan
63347;BME280;49472;49.880;8.650;2023-04-27T00:40:12;18333.41;;;-142.94;nan
63347;BME280;49472;49.880;8.650;2023-04-27T00:42:38;20304.34;;;-142.94;nan
63347;BME280;49472;49.880;8.650;2023-04-27T00:45:03;22276.44;;;-142.94;nan
63347;BME280;49472;49.880;8.650;2023-04-27T00:47:31;25483.56;;;-142.94;nan
63347;BME280;49472;49.880;8.650;2023-04-27T00:49:56;23756.28;;;-142.94;nan
63347;BME280;49472;49.880;8.650;2023-04-27T00:52:22;29187.97;;;-142.94;nan
63347;BME280;49472;49.880;8.650;2023-04-27T00:54:49;30918.09;;;-142.94;nan
63347;BME280;49472;49.880;8.650;2023-04-27T00:57:15;29435.06;;;-142.94;nan
63347;BME280;49472;49.880;8.650;2023-04-27T00:59:40;29435.06;;;-142.94;nan
63347;BME280;49472;49.880;8.650;2023-04-27T01:02:05;31659.84;;;-142.94;nan
63347;BME280;49472;49.880;8.650;2023-04-27T01:04:31;29682.19;;;-142.94;nan
63347;BME280;49472;49.880;8.650;2023-04-27T01:06:57;32154.44;;;-142.94;nan
63347;BME280;49472;49.880;8.650;2023-04-27T01:09:22;36113.84;;;-142.94;nan
63347;BME280;49472;49.880;8.650;2023-04-27T01:11:47;39609.28;;;-142.94;nan
63347;BME280;49472;49.880;8.650;2023-04-27T01:14:13;35866.25;;;-142.94;nan
63347;BME280;49472;49.880;8.650;2023-04-27T01:16:38;24496.44;;;-142.94;nan
63347;BME280;49472;49.880;8.650;2023-04-27T01:19:06;22523.03;;;-142.94;nan
63347;BME280;49472;49.880;8.650;2023-04-27T01:21:31;18087.13;;;-142.94;nan
63347;BME280;49472;49.880;8.650;2023-04-27T01:23:57;17594.63;;;-142.94;nan
63347;BME280;49472;49.880;8.650;2023-04-27T01:26:22;20057.91;;;-142.94;nan
63347;BME280;49472;49.880;8.650;2023-04-27T01:28:48;13165.31;;;-142.94;nan
63347;BME280;49472;49.880;8.650;2023-04-27T01:31:13;10461.44;;;-142.94;nan
63347;BME280;49472;49.880;8.650;2023-04-27T01:33:40;10707.16;;;-142.94;nan
63347;BME280;49472;49.880;8.650;2023-04-27T01:36:05;8496.38;;;-142.94;nan
63347;BME280;49472;49.880;8.650;2023-04-27T01:38:32;6777.91;;;-142.94;nan
63347;BME280;49472;49.880;8.650;2023-04-27T01:40:57;2363.09;;;-142.94;nan
63347;BME280;49472;49.880;8.650;2023-04-27T01:43:27;9478.75;;;-142.94;nan
63347;BME280;49472;49.880;8.650;2023-04-27T01:45:52;3343.66;;;-142.94;nan
63347;BME280;49472;49.880;8.650;2023-04-27T01:48:18;1137.81;;;-142.94;nan
63347;BME280;49472;49.880;8.650;2023-04-27T01:50:44;-1311.38;;;-142.94;nan
63347;BME280;49472;49.880;8.650;2023-04-27T01:53:09;4324.50;;;-142.94;nan
63347;BME280;49472;49.880;8.650;2023-04-27T01:55:34;4079.25;;;-142.94;nan
63347;BME280;49472;49.880;8.650;2023-04-27T01:58:00;892.81;;;-142.94;nan
63347;BME280;49472;49.880;8.650;2023-04-27T02:00:25;3098.47;;;-142.94;nan
63347;BME280;49472;49.880;8.650;2023-04-27T02:02:51;2608.22;;;-142.94;nan
63347;BME280;49472;49.880;8.650;2023-04-27T02:05:18;157.91;;;-142.94;nan
63347;BME280;49472;49.880;8.650;2023-04-27T02:07:43;-3024.75;;;-142.94;nan
63347;BME280;49472;49.880;8.650;2023-04-27T02:10:09;402.84;;;-142.94;nan
63347;BME280;49472;49.880;8.650;2023-04-27T02:12:35;-821.69;;;-142.94;nan
63347;BME280;49472;49.880;8.650;2023-04-27T02:15:00;647.81;;;-142.94;nan
63347;BME280;49472;49.880;8.650;2023-04-27T02:17:27;-2045.78;;;-142.94;nan
63347;BME280;49472;49.880;8.650;2023-04-27T02:19:53;402.84;;;-142.94;nan
63347;BME280;49472;49.880;8.650;2023-04-27T02:22:18;-3758.75;;;-142.94;nan
63347;BME280;49472;49.880;8.650;2023-04-27T02:24:44;402.84;;;-142.94;nan
63347;BME280;49472;49.880;8.650;2023-04-27T02:27:09;1627.88;;;-142.94;nan
63347;BME280;49472;49.880;8.650;2023-04-27T02:29:34;-1801.00;;;-142.94;nan
63347;BME280;49472;49.880;8.650;2023-04-27T02:32:04;-3269.44;;;-142.94;nan
63347;BME280;49472;49.880;8.650;2023-04-27T02:34:29;-4492.63;;;-142.94;nan
63347;BME280;49472;49.880;8.650;2023-04-27T02:36:54;-6204.28;;;-142.94;nan
63347;BME280;49472;49.880;8.650;2023-04-27T02:39:20;-8159.41;;;-142.94;nan
63347;BME280;49472;49.880;8.650;2023-04-27T02:41:45;-8403.72;;;-142.94;nan
63347;BME280;49472;49.880;8.650;2023-04-27T02:44:10;-5470.81;;;-142.94;nan
63347;BME280;49472;49.880;8.650;2023-04-27T02:46:36;-7670.75;;;-142.94;nan
63347;BME280;49472;49.880;8.650;2023-04-27T02:49:01;-4981.75;;;-142.94;nan
63347;BME280;49472;49.880;8.650;2023-04-27T02:51:27;-9380.75;;;-142.94;nan
63347;BME280;49472;49.880;8.650;2023-04-27T02:53:52;-8892.28;;;-142.94;nan
63347;BME280;49472;49.880;8.650;2023-04-27T02:56:18;-6693.19;;;-142.94;nan
63347;BME280;49472;49.880;8.650;2023-04-27T02:58:44;-7182.00;;;-142.94;nan
63347;BME280;49472;49.880;8.650;2023-04-27T03:01:09;-5470.81;;;-142.94;nan
63347;BME280;49472;49.880;8.650;2023-04-27T03:03:35;-9869.19;;;-142.94;nan
63347;BME280;49472;49.880;8.650;2023-04-27T03:06:00;-6204.28;;;-142.94;nan
63347;BME280;49472;49.880;8.650;2023-04-27T03:08:25;-7426.38;;;-142.94;nan
63347;BME280;49472;49.880;8.650;2023-04-27T03:10:51;-7915.09;;;-142.94;nan
63347;BME280;49472;49.880;8.650;2023-04-27T03:13:16;-8159.41;;;-142.94;nan
63347;BME280;49472;49.880;8.650;2023-04-27T03:15:42;-9869.19;;;-142.94;nan
63347;BME280;49472;49.880;8.650;2023-04-27T03:21:29;-6204.28;;;-142.94;nan
63347;BME280;49472;49.880;8.650;2023-04-27T03:23:55;-7426.38;;;-142.94;nan
63347;BME280;49472;49.880;8.650;2023-04-27T03:26:21;-7670.75;;;-142.94;nan
63347;BME280;49472;49.880;8.650;2023-04-27T03:28:46;-6448.75;;;-142.94;nan
63347;BME280;49472;49.880;8.650;2023-04-27T03:31:13;-8159.41;;;-142.94;nan
63347;BME280;49472;49.880;8.650;2023-04-27T03:33:39;-7670.75;;;-142.94;nan
63347;BME280;49472;49.880;8.650;2023-04-27T03:36:06;-9380.75;;;-142.94;nan
63347;BME280;49472;49.880;8.650;2023-04-27T03:38:32;-9624.97;;;-142.94;nan
63347;BME280;49472;49.880;8.650;2023-04-27T03:40:58;-8159.41;;;-142.94;nan
63347;BME280;49472;49.880;8.650;2023-04-27T03:43:25;-9136.53;;;-142.94;nan
63347;BME280;49472;49.880;8.650;2023-04-27T03:45:50;-9380.75;;;-142.94;nan
63347;BME280;49472;49.880;8.650;2023-04-27T03:48:16;-8159.41;;;-142.94;nan
63347;BME280;49472;49.880;8.650;2023-04-27T03:50:42;-9136.53;;;-142.94;nan
63347;BME280;49472;49.880;8.650;2023-04-27T03:53:09;-8892.28;;;-142.94;nan
63347;BME280;49472;49.880;8.650;2023-04-27T03:55:39;-7670.75;;;-142.94;nan
63347;BME280;49472;49.880;8.650;2023-04-27T03:58:04;-10113.34;;;-142.94;nan
63347;BME280;49472;49.880;8.650;2023-04-27T04:00:30;-7670.75;;;-142.94;nan
63347;BME280;49472;49.880;8.650;2023-04-27T04:02:56;-8892.28;;;-142.94;nan
63347;BME280;49472;49.880;8.650;2023-04-27T04:05:21;-12554.13;;;-142.94;nan
63347;BME280;49472;49.880;8.650;2023-04-27T04:07:47;-10357.50;;;-142.94;nan
63347;BME280;49472;49.880;8.650;2023-04-27T04:10:12;-9869.19;;;-142.94;nan
63347;BME280;49472;49.880;8.650;2023-04-27T04:12:37;-9380.75;;;-142.94;nan
63347;BME280;49472;49.880;8.650;2023-04-27T04:15:03;-8892.28;;;-142.94;nan
63347;BME280;49472;49.880;8.650;2023-04-27T04:17:29;-9869.19;;;-142.94;nan
63347;BME280;49472;49.880;8.650;2023-04-27T04:19:54;-9624.97;;;-142.94;nan
63347;BME280;49472;49.880;8.650;2023-04-27T04:22:19;-8648.00;;;-142.94;nan
63347;BME280;49472;49.880;8.650;2023-04-27T04:24:45;-9380.75;;;-142.94;nan
63347;BME280;49472;49.880;8.650;2023-04-27T04:27:11;-10845.78;;;-142.94;nan
63347;BME280;49472;49.880;8.650;2023-04-27T04:29:36;-10357.50;;;-142.94;nan
63347;BME280;49472;49.880;8.650;2023-04-27T04:32:03;-12066.13;;;-142.94;nan
63347;BME280;49472;49.880;8.650;2023-04-27T04:34:28;-11578.03;;;-142.94;nan
63347;BME280;49472;49.880;8.650;2023-04-27T04:36:54;-10601.66;;;-142.94;nan
63347;BME280;49472;49.880;8.650;2023-04-27T04:39:21;-9624.97;;;-142.94;nan
63347;BME280;49472;49.880;8.650;2023-04-27T04:41:47;-7670.75;;;-142.94;nan
63347;BME280;49472;49.880;8.650;2023-04-27T04:44:16;-8648.00;;;-142.94;nan
63347;BME280;49472;49.880;8.650;2023-04-27T04:46:42;-9136.53;;;-142.94;nan
63347;BME280;49472;49.880;8.650;2023-04-27T04:49:08;-7915.09;;;-142.94;nan
63347;BME280;49472;49.880;8.650;2023-04-27T04:51:33;-8892.28;;;-142.94;nan
63347;BME280;49472;49.880;8.650;2023-04-27T04:53:58;-6693.19;;;-142.94;nan
63347;BME280;49472;49.880;8.650;2023-04-27T04:56:24;-7426.38;;;-142.94;nan
63347;BME280;49472;49.880;8.650;2023-04-27T04:58:49;-7915.09;;;-142.94;nan
63347;BME280;49472;49.880;8.650;2023-04-27T05:01:15;-7426.38;;;-142.94;nan
63347;BME280;49472;49.880;8.650;2023-04-27T05:03:40;-7426.38;;;-142.94;nan
63347;BME280;49472;49.880;8.650;2023-04-27T05:06:05;-10601.66;;;-142.94;nan
63347;BME280;49472;49.880;8.650;2023-04-27T05:08:31;-8648.00;;;-142.94;nan
63347;BME280;49472;49.880;8.650;2023-04-27T05:10:56;-8403.72;;;-142.94;nan
63347;BME280;49472;49.880;8.650;2023-04-27T05:13:21;-8403.72;;;-142.94;nan
63347;BME280;49472;49.880;8.650;2023-04-27T05:15:49;-7426.38;;;-142.94;nan
63347;BME280;49472;49.880;8.650;2023-04-27T05:18:14;-7182.00;;;-142.94;nan
63347;BME280;49472;49.880;8.650;2023-04-27T05:20:40;-7426.38;;;-142.94;nan
63347;BME280;49472;49.880;8.650;2023-04-27T05:23:05;-6693.19;;;-142.94;nan
63347;BME280;49472;49.880;8.650;2023-04-27T05:25:34;-6448.75;;;-142.94;nan
63347;BME280;49472;49.880;8.650;2023-04-27T05:28:05;-6204.28;;;-142.94;nan
63347;BME280;49472;49.880;8.650;2023-04-27T05:30:31;-7182.00;;;-142.94;nan
63347;BME280;49472;49.880;8.650;2023-04-27T05:32:56;-6693.19;;;-142.94;nan
63347;BME280;49472;49.880;8.650;2023-04-27T05:35:21;-6693.19;;;-142.94;nan
63347;BME280;49472;49.880;8.650;2023-04-27T05:37:46;-7426.38;;;-142.94;nan
63347;BME280;49472;49.880;8.650;2023-04-27T05:40:14;-5959.81;;;-142.94;nan
63347;BME280;49472;49.880;8.650;2023-04-27T05:42:39;-5715.34;;;-142.94;nan
63347;BME280;49472;49.880;8.650;2023-04-27T05:45:05;-5715.34;;;-142.94;nan
63347;BME280;49472;49.880;8.650;2023-04-27T05:47:31;-4981.75;;;-142.94;nan
63347;BME280;49472;49.880;8.650;2023-04-27T05:49:56;-4003.41;;;-142.94;nan
63347;BME280;49472;49.880;8.650;2023-04-27T05:52:22;-3024.75;;;-142.94;nan
63347;BME280;49472;49.880;8.650;2023-04-27T05:54:53;-2535.31;;;-142.94;nan
63347;BME280;49472;49.880;8.650;2023-04-27T05:57:19;-3514.09;;;-142.94;nan
63347;BME280;49472;49.880;8.650;2023-04-27T05:59:44;-3514.09;;;-142.94;nan
63347;BME280;49472;49.880;8.650;2023-04-27T06:02:10;-1801.00;;;-142.94;nan
63347;BME280;49472;49.880;8.650;2023-04-27T06:04:35;-4248.00;;;-142.94;nan
63347;BME280;49472;49.880;8.650;2023-04-27T06:07:06;-2535.31;;;-142.94;nan
63347;BME280;49472;49.880;8.650;2023-04-27T06:09:31;-2290.56;;;-142.94;nan
63347;BME280;49472;49.880;8.650;2023-04-27T06:11:56;-4492.63;;;-142.94;nan
63347;BME280;49472;49.880;8.650;2023-04-27T06:14:27;-2780.03;;;-142.94;nan
63347;BME280;49472;49.880;8.650;2023-04-27T06:16:53;-4492.63;;;-142.94;nan
63347;BME280;49472;49.880;8.650;2023-04-27T06:19:18;-2290.56;;;-142.94;nan
63347;BME280;49472;49.880;8.650;2023-04-27T06:21:43;-576.81;;;-142.94;nan
63347;BME280;49472;49.880;8.650;2023-04-27T06:24:08;-1801.00;;;-142.94;nan
63347;BME280;49472;49.880;8.650;2023-04-27T06:26:34;-821.69;;;-142.94;nan
63347;BME280;49472;49.880;8.650;2023-04-27T06:29:00;-1066.56;;;-142.94;nan
63347;BME280;49472;49.880;8.650;2023-04-27T06:31:27;-821.69;;;-142.94;nan
63347;BME280;49472;49.880;8.650;2023-04-27T06:33:52;-87.03;;;-142.94;nan
63347;BME280;49472;49.880;8.650;2023-04-27T06:36:18;-1066.56;;;-142.94;nan
63347;BME280;49472;49.880;8.650;2023-04-27T06:38:43;402.84;;;-142.94;nan
63347;BME280;49472;49.880;8.650;2023-04-27T06:41:08;3343.66;;;-142.94;nan
63347;BME280;49472;49.880;8.650;2023-04-27T06:43:34;4324.50;;;-142.94;nan
63347;BME280;49472;49.880;8.650;2023-04-27T06:45:59;5550.97;;;-142.94;nan
63347;BME280;49472;49.880;8.650;2023-04-27T06:48:25;5550.97;;;-142.94;nan
63347;BME280;49472;49.880;8.650;2023-04-27T06:50:50;10215.75;;;-142.94;nan
63347;BME280;49472;49.880;8.650;2023-04-27T06:53:15;11198.66;;;-142.94;nan
63347;BME280;49472;49.880;8.650;2023-04-27T06:55:41;12919.44;;;-142.94;nan
63347;BME280;49472;49.880;8.650;2023-04-27T06:58:07;15379.22;;;-142.94;nan
63347;BME280;49472;49.880;8.650;2023-04-27T07:00:33;15379.22;;;-142.94;nan
63347;BME280;49472;49.880;8.650;2023-04-27T07:02:58;16609.81;;;-142.94;nan
63347;BME280;49472;49.880;8.650;2023-04-27T07:05:23;16609.81;;;-142.94;nan
63347;BME280;49472;49.880;8.650;2023-04-27T07:07:49;18333.41;;;-142.94;nan
63347;BME280;49472;49.880;8.650;2023-04-27T07:10:14;21536.75;;;-142.94;nan
63347;BME280;49472;49.880;8.650;2023-04-27T07:12:41;25730.41;;;-142.94;nan
63347;BME280;49472;49.880;8.650;2023-04-27T07:15:07;31659.84;;;-142.94;nan
63347;BME280;49472;49.880;8.650;2023-04-27T07:17:33;34628.53;;;-142.94;nan
63347;BME280;49472;49.880;8.650;2023-04-27T07:20:00;40137.97;;;-142.94;nan
63347;BME280;49472;49.880;8.650;2023-04-27T07:22:25;42836.97;;;-142.94;nan
63347;BME280;49472;49.880;8.650;2023-04-27T07:24:50;42344.69;;;-142.94;nan
63347;BME280;49472;49.880;8.650;2023-04-27T07:27:16;43034.69;;;-142.94;nan
63347;BME280;49472;49.880;8.650;2023-04-27T07:29:42;44754.53;;;-142.94;nan
63347;BME280;49472;49.880;8.650;2023-04-27T07:32:08;46801.25;;;-142.94;nan
63347;BME280;49472;49.880;8.650;2023-04-27T07:34:33;46805.13;;;-142.94;nan
63347;BME280;49472;49.880;8.650;2023-04-27T07:36:59;46211.34;;;-142.94;nan
63347;BME280;49472;49.880;8.650;2023-04-27T07:39:26;48420.09;;;-142.94;nan
63347;BME280;49472;49.880;8.650;2023-04-27T07:41:52;47880.41;;;-142.94;nan
63347;BME280;49472;49.880;8.650;2023-04-27T07:44:17;48093.94;;;-142.94;nan
63347;BME280;49472;49.880;8.650;2023-04-27T07:46:43;49055.03;;;-142.94;nan
63347;BME280;49472;49.880;8.650;2023-04-27T07:49:09;49849.38;;;-142.94;nan
63347;BME280;49472;49.880;8.650;2023-04-27T07:51:34;49167.69;;;-142.94;nan
63347;BME280;49472;49.880;8.650;2023-04-27T07:54:01;49068.63;;;-142.94;nan
63347;BME280;49472;49.880;8.650;2023-04-27T07:56:26;49301.69;;;-142.94;nan
63347;BME280;49472;49.880;8.650;2023-04-27T07:58:52;49725.06;;;-142.94;nan
63347;BME280;49472;49.880;8.650;2023-04-27T08:01:17;49754.19;;;-142.94;nan
63347;BME280;49472;49.880;8.650;2023-04-27T08:03:42;50585.59;;;-142.94;nan
63347;BME280;49472;49.880;8.650;2023-04-27T08:06:08;50399.09;;;-142.94;nan
63347;BME280;49472;49.880;8.650;2023-04-27T08:08:33;50564.25;;;-142.94;nan
63347;BME280;49472;49.880;8.650;2023-04-27T08:10:58;50630.28;;;-142.94;nan
63347;BME280;49472;49.880;8.650;2023-04-27T08:13:24;50568.13;;;-142.94;nan
63347;BME280;49472;49.880;8.650;2023-04-27T08:15:50;50694.41;;;-142.94;nan
63347;BME280;49472;49.880;8.650;2023-04-27T08:18:15;50741.03;;;-142.94;nan
63347;BME280;49472;49.880;8.650;2023-04-27T08:20:42;50502.06;;;-142.94;nan
63347;BME280;49472;49.880;8.650;2023-04-27T08:23:08;50708.00;;;-142.94;nan
63347;BME280;49472;49.880;8.650;2023-04-27T08:25:35;50766.28;;;-142.94;nan
63347;BME280;49472;49.880;8.650;2023-04-27T08:28:00;50772.13;;;-142.94;nan
63347;BME280;49472;49.880;8.650;2023-04-27T08:30:26;50754.63;;;-142.94;nan
63347;BME280;49472;49.880;8.650;2023-04-27T08:32:51;50828.47;;;-142.94;nan
63347;BME280;49472;49.880;8.650;2023-04-27T08:35:18;50789.59;;;-142.94;nan
63347;BME280;49472;49.880;8.650;2023-04-27T08:37:44;50826.53;;;-142.94;nan
63347;BME280;49472;49.880;8.650;2023-04-27T08:40:10;50791.56;;;-142.94;nan
63347;BME280;49472;49.880;8.650;2023-04-27T08:42:35;50776.00;;;-142.94;nan
63347;BME280;49472;49.880;8.650;2023-04-27T08:45:01;50789.59;;;-142.94;nan
63347;BME280;49472;49.880;8.650;2023-04-27T08:47:26;50721.59;;;-142.94;nan
63347;BME280;49472;49.880;8.650;2023-04-27T08:49:52;50692.47;;;-142.94;nan
63347;BME280;49472;49.880;8.650;2023-04-27T08:52:17;50614.75;;;-142.94;nan
63347;BME280;49472;49.880;8.650;2023-04-27T08:54:43;50622.53;;;-142.94;nan
63347;BME280;49472;49.880;8.650;2023-04-27T08:57:12;50624.47;;;-142.94;nan
63347;BME280;49472;49.880;8.650;2023-04-27T08:59:38;50597.25;;;-142.94;nan
63347;BME280;49472;49.880;8.650;2023-04-27T09:02:05;50505.97;;;-142.94;nan
63347;BME280;49472;49.880;8.650;2023-04-27T09:04:39;50564.25;;;-142.94;nan
63347;BME280;49472;49.880;8.650;2023-04-27T09:07:15;50572.00;;;-142.94;nan
63347;BME280;49472;49.880;8.650;2023-04-27T09:09:41;50426.31;;;-142.94;nan
63347;BME280;49472;49.880;8.650;2023-04-27T09:12:18;50428.25;;;-142.94;nan
63347;BME280;49472;49.880;8.650;2023-04-27T09:15:00;50428.25;;;-142.94;nan
63347;BME280;49472;49.880;8.650;2023-04-27T09:17:32;50457.38;;;-142.94;nan
63347;BME280;49472;49.880;8.650;2023-04-27T09:20:08;50408.81;;;-142.94;nan
63347;BME280;49472;49.880;8.650;2023-04-27T09:22:45;50488.47;;;-142.94;nan
63347;BME280;49472;49.880;8.650;2023-04-27T09:25:31;50459.34;;;-142.94;nan
63347;BME280;49472;49.880;8.650;2023-04-27T09:27:58;50387.44;;;-142.94;nan
63347;BME280;49472;49.880;8.650;2023-04-27T09:30:24;50327.22;;;-142.94;nan
63347;BME280;49472;49.880;8.650;2023-04-27T09:32:57;50354.44;;;-142.94;nan
63347;BME280;49472;49.880;8.650;2023-04-27T09:35:25;50311.69;;;-142.94;nan
63347;BME280;49472;49.880;8.650;2023-04-27T09:37:51;50321.41;;;-142.94;nan
63347;BME280;49472;49.880;8.650;2023-04-27T09:40:25;50300.03;;;-142.94;nan
63347;BME280;49472;49.880;8.650;2023-04-27T09:42:53;50354.44;;;-142.94;nan
63347;BME280;49472;49.880;8.650;2023-04-27T09:45:18;50267.00;;;-142.94;nan
63347;BME280;49472;49.880;8.650;2023-04-27T09:47:44;50307.81;;;-142.94;nan
63347;BME280;49472;49.880;8.650;2023-04-27T09:50:11;50167.94;;;-142.94;nan
63347;BME280;49472;49.880;8.650;2023-04-27T09:52:37;50171.81;;;-142.94;nan
63347;BME280;49472;49.880;8.650;2023-04-27T09:55:03;50183.47;;;-142.94;nan
63347;BME280;49472;49.880;8.650;2023-04-27T09:57:37;50181.53;;;-142.94;nan
63347;BME280;49472;49.880;8.650;2023-04-27T10:00:40;50103.84;;;-142.94;nan
63347;BME280;49472;49.880;8.650;2023-04-27T10:03:16;50047.50;;;-142.94;nan
63347;BME280;49472;49.880;8.650;2023-04-27T10:08:49;50072.75;;;-142.94;nan
63347;BME280;49472;49.880;8.650;2023-04-27T10:11:15;49995.06;;;-142.94;nan
63347;BME280;49472;49.880;8.650;2023-04-27T10:13:53;49934.84;;;-142.94;nan
63347;BME280;49472;49.880;8.650;2023-04-27T10:16:19;49913.47;;;-142.94;nan
63347;BME280;49472;49.880;8.650;2023-04-27T10:18:53;49963.97;;;-142.94;nan
63347;BME280;49472;49.880;8.650;2023-04-27T10:21:19;49826.06;;;-142.94;nan
63347;BME280;49472;49.880;8.650;2023-04-27T10:23:46;49901.81;;;-142.94;nan
63347;BME280;49472;49.880;8.650;2023-04-27T10:26:12;49783.34;;;-142.94;nan
63347;BME280;49472;49.880;8.650;2023-04-27T10:28:38;49711.47;;;-142.94;nan
63347;BME280;49472;49.880;8.650;2023-04-27T10:31:09;49695.94;;;-142.94;nan
63347;BME280;49472;49.880;8.650;2023-04-27T10:33:41;49639.59;;;-142.94;nan
63347;BME280;49472;49.880;8.650;2023-04-27T10:36:13;49678.44;;;-142.94;nan
63347;BME280;49472;49.880;8.650;2023-04-27T10:38:39;49612.41;;;-142.94;nan
63347;BME280;49472;49.880;8.650;2023-04-27T10:41:12;49666.78;;;-142.94;nan
63347;BME280;49472;49.880;8.650;2023-04-27T10:43:37;49688.16;;;-142.94;nan
63347;BME280;49472;49.880;8.650;2023-04-27T10:48:32;49556.09;;;-142.94;nan
63347;BME280;49472;49.880;8.650;2023-04-27T10:51:00;49552.22;;;-142.94;nan
63347;BME280;49472;49.880;8.650;2023-04-27T10:53:25;49556.09;;;-142.94;nan
63347;BME280;49472;49.880;8.650;2023-04-27T10:55:55;49559.97;;;-142.94;nan
63347;BME280;49472;49.880;8.650;2023-04-27T10:58:23;49460.94;;;-142.94;nan
63347;BME280;49472;49.880;8.650;2023-04-27T11:00:49;49503.66;;;-142.94;nan
63347;BME280;49472;49.880;8.650;2023-04-27T11:05:45;49451.22;;;-142.94;nan
63347;BME280;49472;49.880;8.650;2023-04-27T11:08:13;49418.19;;;-142.94;nan
63347;BME280;49472;49.880;8.650;2023-04-27T11:10:47;49441.50;;;-142.94;nan
63347;BME280;49472;49.880;8.650;2023-04-27T11:13:16;49474.53;;;-142.94;nan
63347;BME280;49472;49.880;8.650;2023-04-27T11:16:03;49427.91;;;-142.94;nan
63347;BME280;49472;49.880;8.650;2023-04-27T11:18:30;49361.88;;;-142.94;nan
63347;BME280;49472;49.880;8.650;2023-04-27T11:23:34;49352.16;;;-142.94;nan
63347;BME280;49472;49.880;8.650;2023-04-27T11:26:15;49352.16;;;-142.94;nan
63347;BME280;49472;49.880;8.650;2023-04-27T11:28:42;49326.91;;;-142.94;nan
63347;BME280;49472;49.880;8.650;2023-04-27T11:31:08;49323.03;;;-142.94;nan
63347;BME280;49472;49.880;8.650;2023-04-27T11:33:34;49334.69;;;-142.94;nan
63347;BME280;49472;49.880;8.650;2023-04-27T11:35:59;49311.38;;;-142.94;nan
63347;BME280;49472;49.880;8.650;2023-04-27T11:38:25;49305.56;;;-142.94;nan
63347;BME280;49472;49.880;8.650;2023-04-27T11:41:03;49264.78;;;-142.94;nan
63347;BME280;49472;49.880;8.650;2023-04-27T11:43:28;49299.72;;;-142.94;nan
63347;BME280;49472;49.880;8.650;2023-04-27T11:45:55;49268.66;;;-142.94;nan
63347;BME280;49472;49.880;8.650;2023-04-27T11:48:22;49290.03;;;-142.94;nan
63347;BME280;49472;49.880;8.650;2023-04-27T11:50:48;49299.72;;;-142.94;nan
63347;BME280;49472;49.880;8.650;2023-04-27T11:53:14;49305.56;;;-142.94;nan
63347;BME280;49472;49.880;8.650;2023-04-27T11:55:41;49324.97;;;-142.94;nan
63347;BME280;49472;49.880;8.650;2023-04-27T11:58:14;49276.44;;;-142.94;nan
63347;BME280;49472;49.880;8.650;2023-04-27T12:00:40;49321.09;;;-142.94;nan
63347;BME280;49472;49.880;8.650;2023-04-27T12:03:06;49276.44;;;-142.94;nan
63347;BME280;49472;49.880;8.650;2023-04-27T12:05:32;49299.72;;;-142.94;nan
63347;BME280;49472;49.880;8.650;2023-04-27T12:07:57;49307.50;;;-142.94;nan
63347;BME280;49472;49.880;8.650;2023-04-27T12:10:23;49313.31;;;-142.94;nan
63347;BME280;49472;49.880;8.650;2023-04-27T12:12:49;49338.56;;;-142.94;nan
63347;BME280;49472;49.880;8.650;2023-04-27T12:15:14;49303.63;;;-142.94;nan
63347;BME280;49472;49.880;8.650;2023-04-27T12:17:40;49297.78;;;-142.94;nan
63347;BME280;49472;49.880;8.650;2023-04-27T12:20:06;49297.78;;;-142.94;nan
63347;BME280;49472;49.880;8.650;2023-04-27T12:22:31;49324.97;;;-142.94;nan
63347;BME280;49472;49.880;8.650;2023-04-27T12:24:57;49334.69;;;-142.94;nan
63347;BME280;49472;49.880;8.650;2023-04-27T12:27:22;49326.91;;;-142.94;nan
63347;BME280;49472;49.880;8.650;2023-04-27T12:29:48;49332.75;;;-142.94;nan
63347;BME280;49472;49.880;8.650;2023-04-27T12:32:13;49352.16;;;-142.94;nan
63347;BME280;49472;49.880;8.650;2023-04-27T12:34:38;49363.81;;;-142.94;nan
63347;BME280;49472;49.880;8.650;2023-04-27T12:37:04;49332.75;;;-142.94;nan
63347;BME280;49472;49.880;8.650;2023-04-27T12:39:30;49348.28;;;-142.94;nan
63347;BME280;49472;49.880;8.650;2023-04-27T12:41:56;49342.47;;;-142.94;nan
63347;BME280;49472;49.880;8.650;2023-04-27T12:44:23;49328.88;;;-142.94;nan
63347;BME280;49472;49.880;8.650;2023-04-27T12:46:48;49326.91;;;-142.94;nan
63347;BME280;49472;49.880;8.650;2023-04-27T12:49:15;49332.75;;;-142.94;nan
63347;BME280;49472;49.880;8.650;2023-04-27T12:51:40;49334.69;;;-142.94;nan
63347;BME280;49472;49.880;8.650;2023-04-27T12:54:09;49356.06;;;-142.94;nan
63347;BME280;49472;49.880;8.650;2023-04-27T12:56:34;49346.34;;;-142.94;nan
63347;BME280;49472;49.880;8.650;2023-04-27T12:59:00;49346.34;;;-142.94;nan
63347;BME280;49472;49.880;8.650;2023-04-27T13:01:26;49375.47;;;-142.94;nan
63347;BME280;49472;49.880;8.650;2023-04-27T13:03:59;49391.00;;;-142.94;nan
63347;BME280;49472;49.880;8.650;2023-04-27T13:06:28;49412.38;;;-142.94;nan
63347;BME280;49472;49.880;8.650;2023-04-27T13:08:55;49379.34;;;-142.94;nan
63347;BME280;49472;49.880;8.650;2023-04-27T13:11:22;49324.97;;;-142.94;nan